sensor_id;sensor_type;location;lat;lon;timestamp;P1;durP1;ratioP1;P2;durP2;ratioP2
37065;SDS011;22981;43.080;25.550;2023-08-01T00:01:00;19.87;;;17.77;;
37065;SDS011;22981;43.080;25.550;2023-08-01T00:03:28;19.00;;;16.32;;
37065;SDS011;22981;43.080;25.550;2023-08-01T00:05:56;19.92;;;17.27;;
37065;SDS011;22981;43.080;25.550;2023-08-01T00:08:23;23.65;;;18.32;;
37065;SDS011;22981;43.080;25.550;2023-08-01T00:10:51;21.12;;;17.40;;
37065;SDS011;22981;43.080;25.550;2023-08-01T00:13:18;19.07;;;17.15;;
37065;SDS011;22981;43.080;25.550;2023-08-01T00:15:46;18.27;;;16.32;;
37065;SDS011;22981;43.080;25.550;2023-08-01T00:18:13;19.37;;;17.37;;
37065;SDS011;22981;43.080;25.550;2023-08-01T00:20:41;17.55;;;15.75;;
37065;SDS011;22981;43.080;25.550;2023-08-01T00:23:09;18.75;;;16.90;;
37065;SDS011;22981;43.080;25.550;2023-08-01T00:25:36;19.17;;;17.25;;
37065;SDS011;22981;43.080;25.550;2023-08-01T00:28:04;19.77;;;17.65;;
37065;SDS011;22981;43.080;25.550;2023-08-01T00:30:31;20.08;;;17.98;;
37065;SDS011;22981;43.080;25.550;2023-08-01T00:32:59;20.70;;;18.50;;
37065;SDS011;22981;43.080;25.550;2023-08-01T00:35:27;22.82;;;19.62;;
37065;SDS011;22981;43.080;25.550;2023-08-01T00:37:54;32.45;;;23.77;;
37065;SDS011;22981;43.080;25.550;2023-08-01T00:40:22;31.87;;;23.42;;
37065;SDS011;22981;43.080;25.550;2023-08-01T00:42:50;30.45;;;24.82;;
37065;SDS011;22981;43.080;25.550;2023-08-01T00:45:19;30.23;;;25.12;;
37065;SDS011;22981;43.080;25.550;2023-08-01T00:47:46;32.45;;;26.52;;
37065;SDS011;22981;43.080;25.550;2023-08-01T00:50:14;32.73;;;26.62;;
37065;SDS011;22981;43.080;25.550;2023-08-01T00:52:41;29.20;;;26.10;;
37065;SDS011;22981;43.080;25.550;2023-08-01T00:55:09;28.07;;;25.02;;
37065;SDS011;22981;43.080;25.550;2023-08-01T00:57:37;37.20;;;26.62;;
37065;SDS011;22981;43.080;25.550;2023-08-01T01:00:05;44.23;;;29.05;;
37065;SDS011;22981;43.080;25.550;2023-08-01T01:02:33;32.17;;;28.70;;
37065;SDS011;22981;43.080;25.550;2023-08-01T01:05:01;28.27;;;25.45;;
37065;SDS011;22981;43.080;25.550;2023-08-01T01:07:30;29.15;;;26.07;;
37065;SDS011;22981;43.080;25.550;2023-08-01T01:09:59;36.85;;;25.27;;
37065;SDS011;22981;43.080;25.550;2023-08-01T01:12:27;28.07;;;25.23;;
37065;SDS011;22981;43.080;25.550;2023-08-01T01:14:54;29.63;;;24.82;;
37065;SDS011;22981;43.080;25.550;2023-08-01T01:17:22;75.62;;;26.57;;
37065;SDS011;22981;43.080;25.550;2023-08-01T01:19:49;28.25;;;24.65;;
37065;SDS011;22981;43.080;25.550;2023-08-01T01:22:17;35.70;;;22.82;;
37065;SDS011;22981;43.080;25.550;2023-08-01T01:24:46;24.55;;;22.10;;
37065;SDS011;22981;43.080;25.550;2023-08-01T01:27:14;24.47;;;22.05;;
37065;SDS011;22981;43.080;25.550;2023-08-01T01:29:43;25.35;;;22.82;;
37065;SDS011;22981;43.080;25.550;2023-08-01T01:32:13;24.95;;;22.42;;
37065;SDS011;22981;43.080;25.550;2023-08-01T05:12:00;18.17;;;14.25;;
37065;SDS011;22981;43.080;25.550;2023-08-01T05:14:28;15.70;;;14.10;;
37065;SDS011;22981;43.080;25.550;2023-08-01T05:16:55;15.23;;;13.62;;
37065;SDS011;22981;43.080;25.550;2023-08-01T05:19:23;17.95;;;16.07;;
37065;SDS011;22981;43.080;25.550;2023-08-01T05:21:50;17.00;;;15.25;;
37065;SDS011;22981;43.080;25.550;2023-08-01T05:24:18;17.27;;;15.40;;
37065;SDS011;22981;43.080;25.550;2023-08-01T05:26:45;16.30;;;14.73;;
37065;SDS011;22981;43.080;25.550;2023-08-01T05:29:13;17.77;;;15.78;;
37065;SDS011;22981;43.080;25.550;2023-08-01T05:31:41;16.17;;;14.45;;
37065;SDS011;22981;43.080;25.550;2023-08-01T05:34:08;16.10;;;14.55;;
37065;SDS011;22981;43.080;25.550;2023-08-01T05:36:36;18.25;;;14.00;;
37065;SDS011;22981;43.080;25.550;2023-08-01T05:39:04;15.60;;;13.35;;
37065;SDS011;22981;43.080;25.550;2023-08-01T05:41:31;18.40;;;13.72;;
37065;SDS011;22981;43.080;25.550;2023-08-01T05:43:59;18.55;;;12.33;;
37065;SDS011;22981;43.080;25.550;2023-08-01T05:46:26;13.20;;;11.38;;
37065;SDS011;22981;43.080;25.550;2023-08-01T05:48:54;11.48;;;10.30;;
37065;SDS011;22981;43.080;25.550;2023-08-01T05:51:21;11.83;;;8.80;;
37065;SDS011;22981;43.080;25.550;2023-08-01T05:53:49;10.10;;;7.78;;
37065;SDS011;22981;43.080;25.550;2023-08-01T05:56:17;8.80;;;7.75;;
37065;SDS011;22981;43.080;25.550;2023-08-01T05:58:44;10.90;;;8.05;;
37065;SDS011;22981;43.080;25.550;2023-08-01T06:01:12;11.70;;;9.15;;
37065;SDS011;22981;43.080;25.550;2023-08-01T06:03:40;10.68;;;9.68;;
37065;SDS011;22981;43.080;25.550;2023-08-01T06:06:08;13.98;;;11.10;;
37065;SDS011;22981;43.080;25.550;2023-08-01T06:08:35;15.60;;;10.72;;
37065;SDS011;22981;43.080;25.550;2023-08-01T06:11:03;17.73;;;11.63;;
37065;SDS011;22981;43.080;25.550;2023-08-01T06:13:31;10.18;;;8.78;;
37065;SDS011;22981;43.080;25.550;2023-08-01T06:15:58;14.33;;;8.65;;
37065;SDS011;22981;43.080;25.550;2023-08-01T06:18:26;11.90;;;7.53;;
37065;SDS011;22981;43.080;25.550;2023-08-01T06:20:53;10.55;;;6.72;;
37065;SDS011;22981;43.080;25.550;2023-08-01T06:23:21;8.90;;;6.00;;
37065;SDS011;22981;43.080;25.550;2023-08-01T06:25:49;7.53;;;6.28;;
37065;SDS011;22981;43.080;25.550;2023-08-01T06:28:16;11.20;;;6.67;;
37065;SDS011;22981;43.080;25.550;2023-08-01T06:30:45;7.30;;;5.40;;
37065;SDS011;22981;43.080;25.550;2023-08-01T06:33:12;6.00;;;5.22;;
37065;SDS011;22981;43.080;25.550;2023-08-01T06:35:40;6.05;;;5.20;;
37065;SDS011;22981;43.080;25.550;2023-08-01T06:38:07;8.68;;;5.50;;
37065;SDS011;22981;43.080;25.550;2023-08-01T06:40:35;5.20;;;4.17;;
37065;SDS011;22981;43.080;25.550;2023-08-01T06:43:02;8.13;;;5.00;;
37065;SDS011;22981;43.080;25.550;2023-08-01T06:45:30;6.90;;;4.55;;
37065;SDS011;22981;43.080;25.550;2023-08-01T06:47:57;5.12;;;4.20;;
37065;SDS011;22981;43.080;25.550;2023-08-01T06:50:25;5.20;;;3.62;;
37065;SDS011;22981;43.080;25.550;2023-08-01T06:52:53;4.85;;;3.62;;
37065;SDS011;22981;43.080;25.550;2023-08-01T06:55:20;13.15;;;3.40;;
37065;SDS011;22981;43.080;25.550;2023-08-01T06:57:48;5.22;;;2.90;;
37065;SDS011;22981;43.080;25.550;2023-08-01T07:00:15;6.40;;;3.12;;
37065;SDS011;22981;43.080;25.550;2023-08-01T07:02:43;6.55;;;2.22;;
37065;SDS011;22981;43.080;25.550;2023-08-01T07:05:11;2.35;;;2.02;;
37065;SDS011;22981;43.080;25.550;2023-08-01T07:07:38;4.75;;;2.33;;
37065;SDS011;22981;43.080;25.550;2023-08-01T07:10:06;3.22;;;2.40;;
37065;SDS011;22981;43.080;25.550;2023-08-01T07:12:34;3.90;;;2.20;;
37065;SDS011;22981;43.080;25.550;2023-08-01T07:15:02;2.85;;;2.17;;
37065;SDS011;22981;43.080;25.550;2023-08-01T07:17:30;4.78;;;2.50;;
37065;SDS011;22981;43.080;25.550;2023-08-01T07:19:57;6.25;;;2.20;;
37065;SDS011;22981;43.080;25.550;2023-08-01T07:22:25;5.47;;;2.95;;
37065;SDS011;22981;43.080;25.550;2023-08-01T07:24:53;2.90;;;2.02;;
37065;SDS011;22981;43.080;25.550;2023-08-01T07:27:21;4.60;;;2.50;;
37065;SDS011;22981;43.080;25.550;2023-08-01T07:29:48;6.50;;;3.52;;
37065;SDS011;22981;43.080;25.550;2023-08-01T07:32:16;4.65;;;2.55;;
37065;SDS011;22981;43.080;25.550;2023-08-01T07:34:43;2.75;;;2.42;;
37065;SDS011;22981;43.080;25.550;2023-08-01T07:37:11;4.72;;;2.50;;
37065;SDS011;22981;43.080;25.550;2023-08-01T07:39:39;4.25;;;2.40;;
37065;SDS011;22981;43.080;25.550;2023-08-01T07:42:06;3.55;;;2.50;;
37065;SDS011;22981;43.080;25.550;2023-08-01T07:44:34;3.00;;;2.60;;
37065;SDS011;22981;43.080;25.550;2023-08-01T07:47:01;3.70;;;2.52;;
37065;SDS011;22981;43.080;25.550;2023-08-01T07:49:29;3.58;;;2.35;;
37065;SDS011;22981;43.080;25.550;2023-08-01T07:51:57;5.72;;;2.52;;
37065;SDS011;22981;43.080;25.550;2023-08-01T07:54:24;48.78;;;33.98;;
37065;SDS011;22981;43.080;25.550;2023-08-01T07:56:52;5.67;;;2.83;;
37065;SDS011;22981;43.080;25.550;2023-08-01T07:59:19;4.53;;;3.25;;
37065;SDS011;22981;43.080;25.550;2023-08-01T08:01:47;3.90;;;2.50;;
37065;SDS011;22981;43.080;25.550;2023-08-01T08:04:15;4.22;;;2.37;;
37065;SDS011;22981;43.080;25.550;2023-08-01T08:06:42;3.90;;;2.70;;
37065;SDS011;22981;43.080;25.550;2023-08-01T08:09:10;4.22;;;2.33;;
37065;SDS011;22981;43.080;25.550;2023-08-01T08:11:37;5.60;;;2.33;;
37065;SDS011;22981;43.080;25.550;2023-08-01T08:14:05;4.83;;;2.85;;
37065;SDS011;22981;43.080;25.550;2023-08-01T08:16:32;5.37;;;2.37;;
37065;SDS011;22981;43.080;25.550;2023-08-01T08:19:00;3.42;;;2.67;;
37065;SDS011;22981;43.080;25.550;2023-08-01T08:21:27;3.47;;;2.65;;
37065;SDS011;22981;43.080;25.550;2023-08-01T08:23:55;5.28;;;2.85;;
37065;SDS011;22981;43.080;25.550;2023-08-01T08:26:22;4.28;;;2.50;;
37065;SDS011;22981;43.080;25.550;2023-08-01T08:28:50;3.52;;;2.27;;
37065;SDS011;22981;43.080;25.550;2023-08-01T08:31:18;7.65;;;5.30;;
37065;SDS011;22981;43.080;25.550;2023-08-01T08:33:45;3.77;;;2.52;;
37065;SDS011;22981;43.080;25.550;2023-08-01T08:36:13;4.03;;;2.50;;
37065;SDS011;22981;43.080;25.550;2023-08-01T08:38:40;5.53;;;2.10;;
37065;SDS011;22981;43.080;25.550;2023-08-01T08:41:09;3.65;;;1.92;;
37065;SDS011;22981;43.080;25.550;2023-08-01T08:43:38;4.50;;;2.00;;
37065;SDS011;22981;43.080;25.550;2023-08-01T08:46:08;4.33;;;2.30;;
37065;SDS011;22981;43.080;25.550;2023-08-01T08:48:35;3.02;;;2.00;;
37065;SDS011;22981;43.080;25.550;2023-08-01T08:51:05;4.95;;;2.30;;
37065;SDS011;22981;43.080;25.550;2023-08-01T08:53:34;3.72;;;2.40;;
37065;SDS011;22981;43.080;25.550;2023-08-01T08:56:02;2.77;;;2.00;;
37065;SDS011;22981;43.080;25.550;2023-08-01T08:58:31;3.40;;;2.00;;
37065;SDS011;22981;43.080;25.550;2023-08-01T09:01:04;2.52;;;2.00;;
37065;SDS011;22981;43.080;25.550;2023-08-01T09:03:29;4.10;;;2.30;;
37065;SDS011;22981;43.080;25.550;2023-08-01T09:06:04;6.05;;;3.40;;
37065;SDS011;22981;43.080;25.550;2023-08-01T09:08:36;3.77;;;2.30;;
37065;SDS011;22981;43.080;25.550;2023-08-01T09:11:06;4.10;;;2.22;;
37065;SDS011;22981;43.080;25.550;2023-08-01T09:13:33;5.37;;;2.50;;
37065;SDS011;22981;43.080;25.550;2023-08-01T09:16:01;6.53;;;2.42;;
37065;SDS011;22981;43.080;25.550;2023-08-01T09:18:30;3.22;;;2.10;;
37065;SDS011;22981;43.080;25.550;2023-08-01T09:20:58;5.60;;;2.80;;
37065;SDS011;22981;43.080;25.550;2023-08-01T09:23:28;3.08;;;2.45;;
37065;SDS011;22981;43.080;25.550;2023-08-01T09:25:56;3.67;;;2.12;;
37065;SDS011;22981;43.080;25.550;2023-08-01T09:28:23;4.80;;;2.20;;
37065;SDS011;22981;43.080;25.550;2023-08-01T09:30:53;2.50;;;2.25;;
37065;SDS011;22981;43.080;25.550;2023-08-01T09:33:23;3.60;;;2.40;;
37065;SDS011;22981;43.080;25.550;2023-08-01T09:35:51;3.95;;;2.10;;
37065;SDS011;22981;43.080;25.550;2023-08-01T09:38:19;5.33;;;2.50;;
37065;SDS011;22981;43.080;25.550;2023-08-01T09:40:46;3.60;;;2.30;;
37065;SDS011;22981;43.080;25.550;2023-08-01T09:43:15;4.53;;;2.22;;
37065;SDS011;22981;43.080;25.550;2023-08-01T09:45:50;2.15;;;1.95;;
37065;SDS011;22981;43.080;25.550;2023-08-01T09:48:25;6.00;;;3.00;;
37065;SDS011;22981;43.080;25.550;2023-08-01T09:51:10;5.42;;;2.60;;
37065;SDS011;22981;43.080;25.550;2023-08-01T09:53:57;3.62;;;2.35;;
37065;SDS011;22981;43.080;25.550;2023-08-01T09:56:21;3.33;;;2.37;;
37065;SDS011;22981;43.080;25.550;2023-08-01T09:58:54;3.20;;;2.17;;
37065;SDS011;22981;43.080;25.550;2023-08-01T10:01:23;4.12;;;2.27;;
37065;SDS011;22981;43.080;25.550;2023-08-01T10:03:53;4.78;;;2.58;;
37065;SDS011;22981;43.080;25.550;2023-08-01T10:06:23;2.37;;;2.10;;
37065;SDS011;22981;43.080;25.550;2023-08-01T10:08:52;4.15;;;2.35;;
37065;SDS011;22981;43.080;25.550;2023-08-01T10:11:21;3.02;;;2.30;;
37065;SDS011;22981;43.080;25.550;2023-08-01T10:13:49;3.72;;;2.47;;
37065;SDS011;22981;43.080;25.550;2023-08-01T10:16:17;3.83;;;1.95;;
37065;SDS011;22981;43.080;25.550;2023-08-01T10:18:44;5.80;;;2.40;;
37065;SDS011;22981;43.080;25.550;2023-08-01T10:21:13;5.25;;;2.60;;
37065;SDS011;22981;43.080;25.550;2023-08-01T10:23:42;4.90;;;2.50;;
37065;SDS011;22981;43.080;25.550;2023-08-01T10:26:11;4.80;;;2.25;;
37065;SDS011;22981;43.080;25.550;2023-08-01T10:28:40;4.90;;;2.37;;
37065;SDS011;22981;43.080;25.550;2023-08-01T10:31:14;2.92;;;2.58;;
37065;SDS011;22981;43.080;25.550;2023-08-01T10:36:14;16.45;;;10.93;;
37065;SDS011;22981;43.080;25.550;2023-08-01T10:38:46;8.80;;;6.70;;
37065;SDS011;22981;43.080;25.550;2023-08-01T10:46:51;6.10;;;3.35;;
37065;SDS011;22981;43.080;25.550;2023-08-01T10:49:20;2.80;;;2.35;;
37065;SDS011;22981;43.080;25.550;2023-08-01T10:51:50;4.97;;;2.33;;
37065;SDS011;22981;43.080;25.550;2023-08-01T10:54:18;3.87;;;2.75;;
37065;SDS011;22981;43.080;25.550;2023-08-01T10:56:48;2.58;;;1.90;;
37065;SDS011;22981;43.080;25.550;2023-08-01T10:59:17;3.05;;;1.95;;
37065;SDS011;22981;43.080;25.550;2023-08-01T11:01:47;2.52;;;2.10;;
37065;SDS011;22981;43.080;25.550;2023-08-01T11:04:17;3.25;;;2.02;;
37065;SDS011;22981;43.080;25.550;2023-08-01T11:06:47;3.12;;;2.20;;
37065;SDS011;22981;43.080;25.550;2023-08-01T11:09:17;3.80;;;2.17;;
37065;SDS011;22981;43.080;25.550;2023-08-01T11:11:47;3.67;;;2.30;;
37065;SDS011;22981;43.080;25.550;2023-08-01T11:14:16;4.72;;;2.17;;
37065;SDS011;22981;43.080;25.550;2023-08-01T11:16:45;2.92;;;1.92;;
37065;SDS011;22981;43.080;25.550;2023-08-01T11:19:26;3.15;;;2.52;;
37065;SDS011;22981;43.080;25.550;2023-08-01T11:21:51;2.77;;;2.22;;
37065;SDS011;22981;43.080;25.550;2023-08-01T11:24:22;4.78;;;2.00;;
37065;SDS011;22981;43.080;25.550;2023-08-01T11:26:52;5.08;;;2.20;;
37065;SDS011;22981;43.080;25.550;2023-08-01T11:29:20;3.90;;;2.00;;
37065;SDS011;22981;43.080;25.550;2023-08-01T11:31:58;2.98;;;1.90;;
37065;SDS011;22981;43.080;25.550;2023-08-01T11:34:26;2.33;;;2.00;;
37065;SDS011;22981;43.080;25.550;2023-08-01T11:36:54;2.47;;;1.87;;
37065;SDS011;22981;43.080;25.550;2023-08-01T11:39:21;2.55;;;1.90;;
37065;SDS011;22981;43.080;25.550;2023-08-01T11:41:49;3.05;;;2.10;;
37065;SDS011;22981;43.080;25.550;2023-08-01T11:44:17;2.52;;;1.80;;
37065;SDS011;22981;43.080;25.550;2023-08-01T11:46:46;3.87;;;2.00;;
37065;SDS011;22981;43.080;25.550;2023-08-01T11:49:14;2.20;;;1.85;;
37065;SDS011;22981;43.080;25.550;2023-08-01T11:51:43;2.72;;;1.75;;
37065;SDS011;22981;43.080;25.550;2023-08-01T11:54:13;3.05;;;2.00;;
37065;SDS011;22981;43.080;25.550;2023-08-01T11:56:42;2.83;;;1.80;;
37065;SDS011;22981;43.080;25.550;2023-08-01T11:59:14;3.60;;;2.17;;
37065;SDS011;22981;43.080;25.550;2023-08-01T12:04:11;8.68;;;4.87;;
37065;SDS011;22981;43.080;25.550;2023-08-01T12:06:40;3.25;;;2.60;;
37065;SDS011;22981;43.080;25.550;2023-08-01T12:09:12;4.05;;;1.90;;
37065;SDS011;22981;43.080;25.550;2023-08-01T12:11:40;2.58;;;2.08;;
37065;SDS011;22981;43.080;25.550;2023-08-01T12:14:14;2.33;;;1.70;;
37065;SDS011;22981;43.080;25.550;2023-08-01T12:16:49;3.90;;;2.05;;
37065;SDS011;22981;43.080;25.550;2023-08-01T12:19:21;3.55;;;1.67;;
37065;SDS011;22981;43.080;25.550;2023-08-01T12:21:45;2.87;;;1.80;;
37065;SDS011;22981;43.080;25.550;2023-08-01T12:24:13;3.17;;;2.00;;
37065;SDS011;22981;43.080;25.550;2023-08-01T12:26:41;1.90;;;1.70;;
37065;SDS011;22981;43.080;25.550;2023-08-01T12:29:08;3.37;;;1.90;;
37065;SDS011;22981;43.080;25.550;2023-08-01T12:31:36;2.00;;;1.80;;
37065;SDS011;22981;43.080;25.550;2023-08-01T12:34:03;5.03;;;1.92;;
37065;SDS011;22981;43.080;25.550;2023-08-01T12:36:31;2.65;;;1.60;;
37065;SDS011;22981;43.080;25.550;2023-08-01T12:38:59;2.17;;;1.77;;
37065;SDS011;22981;43.080;25.550;2023-08-01T12:41:26;2.87;;;2.17;;
37065;SDS011;22981;43.080;25.550;2023-08-01T12:43:54;1.90;;;1.80;;
37065;SDS011;22981;43.080;25.550;2023-08-01T12:46:21;2.20;;;1.80;;
37065;SDS011;22981;43.080;25.550;2023-08-01T12:48:49;2.77;;;1.90;;
37065;SDS011;22981;43.080;25.550;2023-08-01T12:51:16;2.22;;;2.00;;
37065;SDS011;22981;43.080;25.550;2023-08-01T12:53:44;2.10;;;1.80;;
37065;SDS011;22981;43.080;25.550;2023-08-01T12:56:11;2.10;;;1.60;;
37065;SDS011;22981;43.080;25.550;2023-08-01T12:58:39;2.85;;;2.15;;
37065;SDS011;22981;43.080;25.550;2023-08-01T13:01:07;2.85;;;1.90;;
37065;SDS011;22981;43.080;25.550;2023-08-01T13:03:34;1.72;;;1.52;;
37065;SDS011;22981;43.080;25.550;2023-08-01T13:06:02;1.98;;;1.70;;
37065;SDS011;22981;43.080;25.550;2023-08-01T13:08:30;2.15;;;1.77;;
37065;SDS011;22981;43.080;25.550;2023-08-01T13:10:57;2.40;;;1.90;;
37065;SDS011;22981;43.080;25.550;2023-08-01T13:13:25;3.37;;;1.87;;
37065;SDS011;22981;43.080;25.550;2023-08-01T13:15:55;2.72;;;1.67;;
37065;SDS011;22981;43.080;25.550;2023-08-01T13:18:23;2.45;;;1.87;;
37065;SDS011;22981;43.080;25.550;2023-08-01T13:20:51;2.98;;;2.20;;
37065;SDS011;22981;43.080;25.550;2023-08-01T13:23:18;2.42;;;1.77;;
37065;SDS011;22981;43.080;25.550;2023-08-01T13:25:46;1.70;;;1.57;;
37065;SDS011;22981;43.080;25.550;2023-08-01T13:28:15;3.58;;;1.85;;
37065;SDS011;22981;43.080;25.550;2023-08-01T13:30:43;2.80;;;1.75;;
37065;SDS011;22981;43.080;25.550;2023-08-01T13:33:10;2.90;;;2.00;;
37065;SDS011;22981;43.080;25.550;2023-08-01T13:35:38;1.90;;;1.70;;
37065;SDS011;22981;43.080;25.550;2023-08-01T13:38:05;2.98;;;2.20;;
37065;SDS011;22981;43.080;25.550;2023-08-01T13:40:33;3.22;;;1.87;;
37065;SDS011;22981;43.080;25.550;2023-08-01T13:43:00;2.35;;;2.12;;
37065;SDS011;22981;43.080;25.550;2023-08-01T13:45:31;3.45;;;2.22;;
37065;SDS011;22981;43.080;25.550;2023-08-01T13:48:00;3.95;;;2.27;;
37065;SDS011;22981;43.080;25.550;2023-08-01T13:50:28;2.37;;;2.17;;
37065;SDS011;22981;43.080;25.550;2023-08-01T13:52:56;3.02;;;2.12;;
37065;SDS011;22981;43.080;25.550;2023-08-01T13:55:24;5.67;;;2.02;;
37065;SDS011;22981;43.080;25.550;2023-08-01T13:57:51;2.40;;;2.20;;
37065;SDS011;22981;43.080;25.550;2023-08-01T14:00:19;2.98;;;1.90;;
37065;SDS011;22981;43.080;25.550;2023-08-01T14:02:48;2.37;;;2.17;;
37065;SDS011;22981;43.080;25.550;2023-08-01T14:05:17;3.33;;;2.22;;
37065;SDS011;22981;43.080;25.550;2023-08-01T14:07:45;3.70;;;2.20;;
37065;SDS011;22981;43.080;25.550;2023-08-01T14:10:12;4.87;;;2.37;;
37065;SDS011;22981;43.080;25.550;2023-08-01T14:12:40;3.35;;;2.08;;
37065;SDS011;22981;43.080;25.550;2023-08-01T14:15:08;2.35;;;2.15;;
37065;SDS011;22981;43.080;25.550;2023-08-01T14:17:35;2.12;;;1.80;;
37065;SDS011;22981;43.080;25.550;2023-08-01T14:20:05;3.10;;;2.05;;
37065;SDS011;22981;43.080;25.550;2023-08-01T14:22:34;2.62;;;2.00;;
37065;SDS011;22981;43.080;25.550;2023-08-01T14:25:02;2.35;;;1.98;;
37065;SDS011;22981;43.080;25.550;2023-08-01T14:27:30;2.67;;;2.10;;
37065;SDS011;22981;43.080;25.550;2023-08-01T14:29:58;3.52;;;2.27;;
37065;SDS011;22981;43.080;25.550;2023-08-01T14:32:25;3.90;;;1.90;;
37065;SDS011;22981;43.080;25.550;2023-08-01T14:34:53;5.65;;;2.70;;
37065;SDS011;22981;43.080;25.550;2023-08-01T14:37:21;3.47;;;1.98;;
37065;SDS011;22981;43.080;25.550;2023-08-01T14:39:49;3.45;;;2.10;;
37065;SDS011;22981;43.080;25.550;2023-08-01T14:42:17;3.95;;;2.20;;
37065;SDS011;22981;43.080;25.550;2023-08-01T14:44:45;4.53;;;2.40;;
37065;SDS011;22981;43.080;25.550;2023-08-01T14:47:15;4.42;;;2.20;;
37065;SDS011;22981;43.080;25.550;2023-08-01T14:49:45;4.40;;;2.17;;
37065;SDS011;22981;43.080;25.550;2023-08-01T14:52:13;2.77;;;1.90;;
37065;SDS011;22981;43.080;25.550;2023-08-01T14:54:40;2.72;;;2.20;;
37065;SDS011;22981;43.080;25.550;2023-08-01T14:57:08;2.45;;;2.10;;
37065;SDS011;22981;43.080;25.550;2023-08-01T14:59:35;1.92;;;1.60;;
37065;SDS011;22981;43.080;25.550;2023-08-01T15:02:03;4.30;;;2.08;;
37065;SDS011;22981;43.080;25.550;2023-08-01T15:04:32;3.08;;;2.10;;
37065;SDS011;22981;43.080;25.550;2023-08-01T15:07:00;3.75;;;2.05;;
37065;SDS011;22981;43.080;25.550;2023-08-01T15:09:29;2.60;;;1.87;;
37065;SDS011;22981;43.080;25.550;2023-08-01T15:11:57;4.72;;;2.15;;
37065;SDS011;22981;43.080;25.550;2023-08-01T15:14:25;3.85;;;2.12;;
37065;SDS011;22981;43.080;25.550;2023-08-01T15:16:52;2.20;;;2.00;;
37065;SDS011;22981;43.080;25.550;2023-08-01T15:19:20;2.83;;;1.87;;
37065;SDS011;22981;43.080;25.550;2023-08-01T15:21:48;3.15;;;1.75;;
37065;SDS011;22981;43.080;25.550;2023-08-01T15:24:16;2.15;;;1.90;;
37065;SDS011;22981;43.080;25.550;2023-08-01T15:26:43;5.67;;;2.50;;
37065;SDS011;22981;43.080;25.550;2023-08-01T15:29:11;5.78;;;2.45;;
37065;SDS011;22981;43.080;25.550;2023-08-01T15:31:39;3.25;;;2.22;;
37065;SDS011;22981;43.080;25.550;2023-08-01T15:34:06;4.65;;;2.08;;
37065;SDS011;22981;43.080;25.550;2023-08-01T15:36:34;2.22;;;2.02;;
37065;SDS011;22981;43.080;25.550;2023-08-01T15:39:02;4.08;;;2.20;;
37065;SDS011;22981;43.080;25.550;2023-08-01T15:41:29;1.90;;;1.75;;
37065;SDS011;22981;43.080;25.550;2023-08-01T15:43:57;2.27;;;1.80;;
37065;SDS011;22981;43.080;25.550;2023-08-01T15:46:25;2.00;;;1.80;;
37065;SDS011;22981;43.080;25.550;2023-08-01T15:48:52;4.08;;;2.15;;
37065;SDS011;22981;43.080;25.550;2023-08-01T15:51:20;3.52;;;1.75;;
37065;SDS011;22981;43.080;25.550;2023-08-01T15:53:47;2.15;;;1.98;;
37065;SDS011;22981;43.080;25.550;2023-08-01T15:56:15;3.92;;;2.15;;
37065;SDS011;22981;43.080;25.550;2023-08-01T15:58:42;1.95;;;1.85;;
37065;SDS011;22981;43.080;25.550;2023-08-01T16:01:10;2.42;;;2.22;;
37065;SDS011;22981;43.080;25.550;2023-08-01T16:03:38;3.77;;;2.10;;
37065;SDS011;22981;43.080;25.550;2023-08-01T16:06:07;2.12;;;1.90;;
37065;SDS011;22981;43.080;25.550;2023-08-01T16:08:35;3.02;;;1.85;;
37065;SDS011;22981;43.080;25.550;2023-08-01T16:11:03;3.80;;;2.22;;
37065;SDS011;22981;43.080;25.550;2023-08-01T16:13:31;3.75;;;2.12;;
37065;SDS011;22981;43.080;25.550;2023-08-01T16:15:59;3.45;;;2.05;;
37065;SDS011;22981;43.080;25.550;2023-08-01T16:18:26;3.62;;;2.05;;
37065;SDS011;22981;43.080;25.550;2023-08-01T16:20:54;3.02;;;1.95;;
37065;SDS011;22981;43.080;25.550;2023-08-01T16:23:21;2.37;;;2.17;;
37065;SDS011;22981;43.080;25.550;2023-08-01T16:25:49;3.70;;;1.90;;
37065;SDS011;22981;43.080;25.550;2023-08-01T16:28:16;2.40;;;2.10;;
37065;SDS011;22981;43.080;25.550;2023-08-01T16:30:46;3.72;;;2.12;;
37065;SDS011;22981;43.080;25.550;2023-08-01T16:33:17;2.22;;;1.90;;
37065;SDS011;22981;43.080;25.550;2023-08-01T16:35:45;2.65;;;2.05;;
37065;SDS011;22981;43.080;25.550;2023-08-01T16:38:13;2.60;;;1.87;;
37065;SDS011;22981;43.080;25.550;2023-08-01T16:40:40;3.90;;;2.10;;
37065;SDS011;22981;43.080;25.550;2023-08-01T16:43:08;3.62;;;2.33;;
37065;SDS011;22981;43.080;25.550;2023-08-01T16:45:36;2.65;;;2.22;;
37065;SDS011;22981;43.080;25.550;2023-08-01T16:48:03;4.17;;;2.15;;
37065;SDS011;22981;43.080;25.550;2023-08-01T16:50:31;3.05;;;2.10;;
37065;SDS011;22981;43.080;25.550;2023-08-01T16:52:59;2.30;;;2.10;;
37065;SDS011;22981;43.080;25.550;2023-08-01T16:55:26;3.87;;;2.40;;
37065;SDS011;22981;43.080;25.550;2023-08-01T16:57:54;2.75;;;2.08;;
37065;SDS011;22981;43.080;25.550;2023-08-01T17:00:22;4.10;;;2.10;;
37065;SDS011;22981;43.080;25.550;2023-08-01T17:02:50;3.12;;;2.20;;
37065;SDS011;22981;43.080;25.550;2023-08-01T17:05:17;2.42;;;2.20;;
37065;SDS011;22981;43.080;25.550;2023-08-01T17:07:46;6.10;;;2.60;;
37065;SDS011;22981;43.080;25.550;2023-08-01T17:10:14;3.77;;;2.30;;
37065;SDS011;22981;43.080;25.550;2023-08-01T17:12:41;3.33;;;2.30;;
37065;SDS011;22981;43.080;25.550;2023-08-01T17:15:10;4.53;;;2.60;;
37065;SDS011;22981;43.080;25.550;2023-08-01T17:17:37;4.45;;;2.52;;
37065;SDS011;22981;43.080;25.550;2023-08-01T17:20:05;5.85;;;3.27;;
37065;SDS011;22981;43.080;25.550;2023-08-01T17:22:54;4.30;;;2.70;;
37065;SDS011;22981;43.080;25.550;2023-08-01T17:25:21;2.98;;;2.60;;
37065;SDS011;22981;43.080;25.550;2023-08-01T17:27:49;7.03;;;2.83;;
37065;SDS011;22981;43.080;25.550;2023-08-01T17:30:18;6.15;;;2.85;;
37065;SDS011;22981;43.080;25.550;2023-08-01T17:32:45;5.45;;;2.72;;
37065;SDS011;22981;43.080;25.550;2023-08-01T17:35:15;9.45;;;3.08;;
37065;SDS011;22981;43.080;25.550;2023-08-01T17:37:44;7.08;;;2.85;;
37065;SDS011;22981;43.080;25.550;2023-08-01T17:40:11;8.28;;;2.87;;
37065;SDS011;22981;43.080;25.550;2023-08-01T17:42:39;3.77;;;2.90;;
37065;SDS011;22981;43.080;25.550;2023-08-01T17:45:07;5.35;;;2.87;;
37065;SDS011;22981;43.080;25.550;2023-08-01T17:47:35;6.30;;;2.92;;
37065;SDS011;22981;43.080;25.550;2023-08-01T17:50:03;3.52;;;2.45;;
37065;SDS011;22981;43.080;25.550;2023-08-01T17:52:31;6.90;;;2.55;;
37065;SDS011;22981;43.080;25.550;2023-08-01T17:54:59;4.92;;;2.72;;
37065;SDS011;22981;43.080;25.550;2023-08-01T17:57:27;6.22;;;2.65;;
37065;SDS011;22981;43.080;25.550;2023-08-01T17:59:54;3.40;;;2.67;;
37065;SDS011;22981;43.080;25.550;2023-08-01T18:02:22;3.85;;;2.70;;
37065;SDS011;22981;43.080;25.550;2023-08-01T18:04:51;9.55;;;3.62;;
37065;SDS011;22981;43.080;25.550;2023-08-01T18:07:20;8.23;;;3.35;;
37065;SDS011;22981;43.080;25.550;2023-08-01T18:09:47;5.10;;;3.08;;
37065;SDS011;22981;43.080;25.550;2023-08-01T18:12:15;4.70;;;2.70;;
37065;SDS011;22981;43.080;25.550;2023-08-01T18:14:43;4.40;;;2.72;;
37065;SDS011;22981;43.080;25.550;2023-08-01T18:17:10;4.95;;;2.80;;
37065;SDS011;22981;43.080;25.550;2023-08-01T18:19:38;8.15;;;3.12;;
37065;SDS011;22981;43.080;25.550;2023-08-01T18:22:05;3.70;;;2.62;;
37065;SDS011;22981;43.080;25.550;2023-08-01T18:24:33;4.20;;;3.27;;